Time;durP1;ratioP1;P1;durP2;ratioP2;P2;SDS_P1;SDS_P2;PMS_P1;PMS_P2;Temp;Humidity;BMP_temperature;BMP_pressure;BME280_temperature;BME280_humidity;BME280_pressure;Samples;Min_cycle;Max_cycle;Signal;HPM_P1;HPM_P2
2022/08/12 00:45:11;;;;;;;4.18;2.55;;;;;;;;;;5029745;28;20037;-78
2022/08/12 00:47:38;;;;;;;6.03;2.72;;;;;;;;;;5029228;28;20128;-78
2022/08/12 00:50:05;;;;;;;4.50;2.72;;;;;;;;;;5029367;28;20072;-78
2022/08/12 00:52:32;;;;;;;7.18;2.95;;;;;;;;;;5029398;28;20109;-78
2022/08/12 00:54:59;;;;;;;6.55;2.78;;;;;;;;;;5029071;28;20045;-78
2022/08/12 00:57:28;;;;;;;5.68;2.75;;;;;;;;;;5028952;28;20030;-78
2022/08/12 00:59:54;;;;;;;7.28;2.85;;;;;;;;;;5028527;28;20053;-78
2022/08/12 01:02:25;;;;;;;6.18;2.85;;;;;;;;;;5027577;28;20092;-78
2022/08/12 01:13:09;;;;;;;10.88;3.35;;;;;;;;;;5029248;28;20092;-78
2022/08/12 01:15:35;;;;;;;5.22;2.88;;;;;;;;;;5029435;28;20040;-78
2022/08/12 01:18:04;;;;;;;8.35;3.22;;;;;;;;;;5028676;28;20041;-78
2022/08/12 01:20:36;;;;;;;6.78;3.03;;;;;;;;;;5025597;28;20037;-78
2022/08/12 01:23:22;;;;;;;6.75;3.55;;;;;;;;;;5028907;28;20037;-78
2022/08/12 01:25:49;;;;;;;7.38;2.80;;;;;;;;;;5028696;28;20061;-78
2022/08/12 01:28:16;;;;;;;8.30;2.65;;;;;;;;;;5028914;28;20033;-78
2022/08/12 01:30:43;;;;;;;6.60;3.55;;;;;;;;;;5020201;28;20053;-78
2022/08/12 01:33:15;;;;;;;7.75;3.15;;;;;;;;;;5028615;28;20040;-78
2022/08/12 01:35:44;;;;;;;4.90;3.03;;;;;;;;;;5028184;28;20108;-78
2022/08/12 01:38:10;;;;;;;6.78;3.65;;;;;;;;;;5026339;28;20620;-78
2022/08/12 01:40:39;;;;;;;5.00;2.92;;;;;;;;;;5028613;28;20030;-78
2022/08/12 01:43:07;;;;;;;6.53;3.10;;;;;;;;;;5021488;28;20087;-78
2022/08/12 01:45:33;;;;;;;6.63;3.70;;;;;;;;;;5025954;28;20034;-78
2022/08/12 01:48:11;;;;;;;7.03;3.22;;;;;;;;;;5022027;28;20035;-78
2022/08/12 01:50:40;;;;;;;7.45;3.60;;;;;;;;;;5025390;28;20061;-78
2022/08/12 01:53:11;;;;;;;5.25;2.72;;;;;;;;;;5027264;28;20084;-78
2022/08/12 01:55:40;;;;;;;8.70;3.47;;;;;;;;;;5026937;28;20101;-78
2022/08/12 01:58:10;;;;;;;5.78;3.58;;;;;;;;;;5028904;28;20029;-78
2022/08/12 02:00:50;;;;;;;6.68;3.40;;;;;;;;;;5028570;28;20099;-78
2022/08/12 02:12:24;;;;;;;5.75;2.72;;;;;;;;;;5027803;28;20174;-78
2022/08/12 02:14:56;;;;;;;5.40;3.05;;;;;;;;;;5024212;28;20418;-78
2022/08/12 02:17:31;;;;;;;5.30;2.70;;;;;;;;;;5033239;28;20852;-78
2022/08/12 02:20:04;;;;;;;5.10;2.80;;;;;;;;;;5026910;28;20037;-78
2022/08/12 02:22:37;;;;;;;4.45;2.83;;;;;;;;;;5032000;28;20032;-78
2022/08/12 02:25:03;;;;;;;8.23;3.28;;;;;;;;;;5031899;28;20604;-78
2022/08/12 02:27:33;;;;;;;6.75;3.03;;;;;;;;;;5031754;28;20030;-77
2022/08/12 02:29:59;;;;;;;6.78;2.72;;;;;;;;;;5023018;28;20062;-78
2022/08/12 02:32:25;;;;;;;8.25;3.08;;;;;;;;;;5030575;28;20021;-78
2022/08/12 02:34:51;;;;;;;4.65;2.72;;;;;;;;;;5031941;28;20052;-78
2022/08/12 02:37:18;;;;;;;6.28;2.80;;;;;;;;;;5023521;28;20459;-78
2022/08/12 02:39:48;;;;;;;6.47;2.92;;;;;;;;;;5031109;28;20040;-78
2022/08/12 02:42:16;;;;;;;7.20;3.10;;;;;;;;;;5030920;28;20121;-78
2022/08/12 02:44:44;;;;;;;5.97;2.80;;;;;;;;;;5031940;28;20116;-78
2022/08/12 02:47:11;;;;;;;5.50;3.25;;;;;;;;;;5030963;28;20514;-78
2022/08/12 02:49:43;;;;;;;5.70;2.67;;;;;;;;;;5021976;28;20099;-78
2022/08/12 02:52:10;;;;;;;5.78;3.00;;;;;;;;;;5022424;28;20025;-78
2022/08/12 02:54:37;;;;;;;7.65;2.90;;;;;;;;;;5017739;28;20046;-78
2022/08/12 02:57:05;;;;;;;7.40;3.10;;;;;;;;;;5031574;28;20108;-78
2022/08/12 02:59:34;;;;;;;6.75;2.90;;;;;;;;;;5032056;28;20129;-78
2022/08/12 03:02:04;;;;;;;5.80;2.85;;;;;;;;;;5028166;28;20940;-78
2022/08/12 03:04:36;;;;;;;7.05;2.70;;;;;;;;;;5031416;28;20122;-78
2022/08/12 03:07:08;;;;;;;8.00;3.20;;;;;;;;;;5028485;28;20026;-78
2022/08/12 03:09:38;;;;;;;6.78;3.17;;;;;;;;;;5031308;28;20037;-78
2022/08/12 03:12:08;;;;;;;6.07;2.80;;;;;;;;;;5026688;28;20071;-78
2022/08/12 03:14:35;;;;;;;9.20;3.88;;;;;;;;;;5030851;28;20033;-78
2022/08/12 03:17:11;;;;;;;7.25;3.33;;;;;;;;;;5023683;28;20030;-78
2022/08/12 03:19:38;;;;;;;8.80;3.63;;;;;;;;;;5019641;28;20037;-78
2022/08/12 03:22:13;;;;;;;5.97;3.40;;;;;;;;;;5026920;28;20100;-78
2022/08/12 03:24:44;;;;;;;7.18;3.30;;;;;;;;;;5031239;28;20132;-78
2022/08/12 03:27:12;;;;;;;5.60;3.03;;;;;;;;;;5029783;28;20375;-78
2022/08/12 03:29:38;;;;;;;5.68;3.17;;;;;;;;;;5024998;28;20292;-78
2022/08/12 03:32:05;;;;;;;6.32;3.38;;;;;;;;;;5030135;28;20055;-78
2022/08/12 03:34:34;;;;;;;6.25;3.30;;;;;;;;;;5031007;28;20494;-78
2022/08/12 03:37:01;;;;;;;9.02;3.25;;;;;;;;;;5022593;28;20562;-78
2022/08/12 03:42:24;;;;;;;8.07;3.45;;;;;;;;;;5021432;28;20075;-78
2022/08/12 04:01:51;;;;;;;6.85;3.53;;;;;;;;;;5028046;28;20067;-78
2022/08/12 04:04:19;;;;;;;8.80;3.40;;;;;;;;;;5030090;28;20041;-78
2022/08/12 04:06:45;;;;;;;6.38;3.13;;;;;;;;;;5030437;28;20445;-78
2022/08/12 04:09:14;;;;;;;5.72;3.10;;;;;;;;;;5029534;28;20874;-78
2022/08/12 04:14:26;;;;;;;5.28;2.92;;;;;;;;;;5013682;28;20057;-78
2022/08/12 04:16:53;;;;;;;8.23;3.08;;;;;;;;;;5029543;28;20025;-78
2022/08/12 04:19:19;;;;;;;7.60;3.28;;;;;;;;;;5029661;28;20091;-78
2022/08/12 04:21:46;;;;;;;5.80;2.90;;;;;;;;;;5025171;28;20033;-78
2022/08/12 04:24:12;;;;;;;4.22;2.78;;;;;;;;;;5028043;28;20042;-78
2022/08/12 04:26:39;;;;;;;7.05;3.40;;;;;;;;;;5030019;28;20057;-78
2022/08/12 04:29:06;;;;;;;6.78;3.70;;;;;;;;;;5027901;28;20038;-78
2022/08/12 04:31:36;;;;;;;6.75;3.55;;;;;;;;;;5023467;28;20038;-78
2022/08/12 04:34:03;;;;;;;6.25;3.03;;;;;;;;;;5025636;28;20038;-78
2022/08/12 04:36:29;;;;;;;7.63;3.75;;;;;;;;;;5029586;28;20067;-78
2022/08/12 04:38:57;;;;;;;7.35;3.30;;;;;;;;;;5025632;28;20030;-78
2022/08/12 04:41:24;;;;;;;5.43;3.30;;;;;;;;;;5028879;28;20593;-78
2022/08/12 04:43:50;;;;;;;5.35;3.50;;;;;;;;;;5024286;28;20040;-78
2022/08/12 04:46:16;;;;;;;6.55;3.75;;;;;;;;;;5030669;28;20025;-78
2022/08/12 04:48:42;;;;;;;9.30;3.75;;;;;;;;;;5021697;28;20037;-78
2022/08/12 04:51:09;;;;;;;6.45;2.97;;;;;;;;;;5026053;28;20061;-78
2022/08/12 04:53:35;;;;;;;6.90;3.47;;;;;;;;;;5026301;28;20042;-78
2022/08/12 04:56:01;;;;;;;7.32;3.63;;;;;;;;;;5028817;28;20100;-78
2022/08/12 04:58:27;;;;;;;9.95;3.20;;;;;;;;;;5026592;28;20040;-78
2022/08/12 05:00:54;;;;;;;8.13;3.65;;;;;;;;;;5028597;28;20048;-78
2022/08/12 05:03:20;;;;;;;6.75;3.08;;;;;;;;;;5028640;28;20029;-78
2022/08/12 05:05:46;;;;;;;10.85;3.90;;;;;;;;;;5023883;28;20444;-78
2022/08/12 05:08:16;;;;;;;10.20;3.67;;;;;;;;;;5018153;28;20799;-78
2022/08/12 05:10:43;;;;;;;5.28;3.13;;;;;;;;;;5022430;28;20060;-78
2022/08/12 05:13:10;;;;;;;7.22;3.63;;;;;;;;;;5021471;28;20044;-78
2022/08/12 05:15:39;;;;;;;10.48;3.40;;;;;;;;;;5017879;28;20025;-78
2022/08/12 05:18:05;;;;;;;10.15;3.40;;;;;;;;;;5030939;28;20105;-78
2022/08/12 05:20:32;;;;;;;7.93;3.13;;;;;;;;;;5029258;28;20104;-78
2022/08/12 05:23:06;;;;;;;6.07;3.08;;;;;;;;;;5031636;28;20078;-78
2022/08/12 05:25:32;;;;;;;7.40;3.35;;;;;;;;;;5024954;28;20030;-78
2022/08/12 05:27:59;;;;;;;8.10;3.67;;;;;;;;;;5018473;28;20124;-78
2022/08/12 05:30:26;;;;;;;6.40;3.75;;;;;;;;;;5028825;28;20084;-78
2022/08/12 05:32:54;;;;;;;7.88;3.47;;;;;;;;;;5027756;28;20062;-78
2022/08/12 05:35:21;;;;;;;7.30;3.28;;;;;;;;;;5028689;28;20031;-78
2022/08/12 05:37:47;;;;;;;11.35;3.65;;;;;;;;;;5027643;28;20073;-78
2022/08/12 05:40:13;;;;;;;9.18;3.63;;;;;;;;;;5025840;28;20491;-78
2022/08/12 05:42:39;;;;;;;6.80;3.40;;;;;;;;;;5022142;28;20029;-78
2022/08/12 05:45:06;;;;;;;8.18;3.20;;;;;;;;;;5028194;28;20052;-78
2022/08/12 05:47:32;;;;;;;8.75;3.60;;;;;;;;;;5027632;28;20642;-78
2022/08/12 05:49:58;;;;;;;5.10;3.35;;;;;;;;;;5030111;28;20041;-78
2022/08/12 05:52:24;;;;;;;6.15;3.58;;;;;;;;;;5030056;28;20483;-78
2022/08/12 05:54:50;;;;;;;13.68;3.78;;;;;;;;;;5031720;28;20037;-78
2022/08/12 05:57:17;;;;;;;5.07;3.17;;;;;;;;;;5024822;28;20043;-79
2022/08/12 05:59:43;;;;;;;8.05;3.80;;;;;;;;;;5029018;28;20588;-79
2022/08/12 06:02:10;;;;;;;9.57;3.72;;;;;;;;;;5027731;28;20029;-78
2022/08/12 06:04:38;;;;;;;10.35;3.55;;;;;;;;;;5024582;28;20574;-78
2022/08/12 06:07:07;;;;;;;8.88;3.10;;;;;;;;;;5027986;28;20040;-78
2022/08/12 06:09:33;;;;;;;6.45;3.70;;;;;;;;;;5028467;28;20033;-78
2022/08/12 06:11:59;;;;;;;5.32;3.13;;;;;;;;;;5022183;28;20033;-78
2022/08/12 06:14:25;;;;;;;7.60;3.35;;;;;;;;;;5026694;28;20520;-78
2022/08/12 06:16:51;;;;;;;9.57;3.53;;;;;;;;;;5030082;28;20039;-78
2022/08/12 06:19:18;;;;;;;7.53;3.33;;;;;;;;;;5035341;28;20031;-78
2022/08/12 06:21:47;;;;;;;7.18;3.65;;;;;;;;;;5038174;28;20025;-78
2022/08/12 06:24:14;;;;;;;6.40;3.08;;;;;;;;;;5038317;28;20029;-78
2022/08/12 06:26:40;;;;;;;7.90;3.83;;;;;;;;;;5041572;28;20064;-78
2022/08/12 06:29:07;;;;;;;7.55;3.20;;;;;;;;;;5040554;28;20702;-78
2022/08/12 06:31:33;;;;;;;7.35;3.38;;;;;;;;;;5045430;28;20083;-78
2022/08/12 06:33:59;;;;;;;8.60;3.58;;;;;;;;;;5039028;28;20036;-79
2022/08/12 06:36:25;;;;;;;6.63;3.42;;;;;;;;;;5039133;28;20111;-78
2022/08/12 06:38:51;;;;;;;7.75;3.63;;;;;;;;;;5043567;28;20037;-78
2022/08/12 06:44:02;;;;;;;8.77;3.25;;;;;;;;;;5030036;28;20135;-78
2022/08/12 06:46:29;;;;;;;9.38;3.42;;;;;;;;;;5030112;28;20152;-78
2022/08/12 06:48:57;;;;;;;9.30;3.40;;;;;;;;;;5035463;28;20116;-78
2022/08/12 06:51:24;;;;;;;9.65;3.15;;;;;;;;;;5032067;28;20753;-78
2022/08/12 06:53:50;;;;;;;9.68;3.33;;;;;;;;;;5035013;28;20076;-78
2022/08/12 06:56:16;;;;;;;9.77;3.22;;;;;;;;;;5034198;28;20030;-78
2022/08/12 06:58:43;;;;;;;6.35;2.90;;;;;;;;;;5039176;28;20064;-78
2022/08/12 07:01:09;;;;;;;9.25;3.47;;;;;;;;;;5030337;28;20088;-78
2022/08/12 07:03:36;;;;;;;5.65;3.40;;;;;;;;;;5033848;28;20065;-78
2022/08/12 07:06:03;;;;;;;6.53;3.42;;;;;;;;;;5038502;28;20056;-79
2022/08/12 07:08:30;;;;;;;6.95;2.83;;;;;;;;;;5039163;28;20029;-78
2022/08/12 07:11:00;;;;;;;9.02;3.03;;;;;;;;;;5040159;28;20040;-78
2022/08/12 07:13:27;;;;;;;6.60;3.30;;;;;;;;;;5044856;28;20041;-78
2022/08/12 07:15:55;;;;;;;7.95;3.55;;;;;;;;;;5032551;28;20033;-78
2022/08/12 07:18:22;;;;;;;6.72;3.58;;;;;;;;;;5025481;28;20021;-78
2022/08/12 07:20:48;;;;;;;7.40;3.42;;;;;;;;;;5031227;28;20041;-79
2022/08/12 07:23:15;;;;;;;8.55;3.67;;;;;;;;;;5032685;28;20029;-78
2022/08/12 07:25:41;;;;;;;5.65;2.80;;;;;;;;;;5028798;28;20041;-78
2022/08/12 07:28:22;;;;;;;9.32;3.83;;;;;;;;;;5039362;28;20036;-78
2022/08/12 07:30:49;;;;;;;6.60;3.38;;;;;;;;;;5032181;28;20036;-79
2022/08/12 07:33:17;;;;;;;10.15;3.15;;;;;;;;;;5028909;28;20025;-78
2022/08/12 07:35:46;;;;;;;6.85;3.33;;;;;;;;;;5030765;28;20482;-78
2022/08/12 07:38:29;;;;;;;5.22;3.00;;;;;;;;;;5027135;28;20013;-78
2022/08/12 07:40:58;;;;;;;9.35;3.83;;;;;;;;;;5028139;28;20035;-78
2022/08/12 07:43:26;;;;;;;8.00;3.35;;;;;;;;;;5036598;28;20379;-78
2022/08/12 07:45:53;;;;;;;5.82;3.17;;;;;;;;;;5036334;28;20393;-79
2022/08/12 07:48:19;;;;;;;9.55;3.20;;;;;;;;;;5039315;28;20021;-79
2022/08/12 07:50:45;;;;;;;6.32;3.13;;;;;;;;;;5024748;28;20706;-78
2022/08/12 07:53:11;;;;;;;5.57;2.90;;;;;;;;;;5035341;28;20083;-79
2022/08/12 07:55:37;;;;;;;10.32;3.00;;;;;;;;;;5043073;28;20033;-78
2022/08/12 07:58:04;;;;;;;7.65;3.10;;;;;;;;;;5033983;28;20061;-78
2022/08/12 08:00:32;;;;;;;10.68;3.70;;;;;;;;;;5023995;28;20067;-79
2022/08/12 08:02:58;;;;;;;11.60;3.47;;;;;;;;;;5025531;28;20036;-78
2022/08/12 08:05:25;;;;;;;9.23;3.22;;;;;;;;;;5023373;28;20768;-78
2022/08/12 08:07:52;;;;;;;7.93;3.28;;;;;;;;;;5027164;28;20793;-79
2022/08/12 08:10:19;;;;;;;11.73;2.78;;;;;;;;;;5031164;28;20044;-79
2022/08/12 08:12:56;;;;;;;22.15;3.50;;;;;;;;;;5026645;28;20017;-78
2022/08/12 08:15:23;;;;;;;10.35;3.22;;;;;;;;;;5030581;28;20025;-79
2022/08/12 08:18:01;;;;;;;12.25;3.15;;;;;;;;;;5023633;28;20422;-79
2022/08/12 08:20:28;;;;;;;25.38;5.00;;;;;;;;;;5031323;28;20140;-79
2022/08/12 08:22:55;;;;;;;24.90;5.00;;;;;;;;;;5026849;28;20033;-79
2022/08/12 08:25:22;;;;;;;24.13;4.15;;;;;;;;;;5029882;28;20497;-79
2022/08/12 08:27:48;;;;;;;15.90;3.70;;;;;;;;;;5031176;28;20037;-79
2022/08/12 08:30:15;;;;;;;21.42;4.65;;;;;;;;;;5024175;28;20366;-79
2022/08/12 08:32:41;;;;;;;10.85;2.95;;;;;;;;;;5028507;28;20037;-79
2022/08/12 08:35:10;;;;;;;7.57;3.42;;;;;;;;;;5030769;28;20037;-79
2022/08/12 08:37:39;;;;;;;12.45;2.50;;;;;;;;;;5037249;28;20060;-79
2022/08/12 08:42:53;;;;;;;11.38;2.90;;;;;;;;;;5028585;28;20031;-78
2022/08/12 08:45:20;;;;;;;6.55;2.80;;;;;;;;;;5032594;28;20049;-78
2022/08/12 08:47:46;;;;;;;4.47;2.33;;;;;;;;;;5036895;28;20028;-78
2022/08/12 08:50:15;;;;;;;8.57;2.70;;;;;;;;;;5039100;28;20043;-78
2022/08/12 08:52:42;;;;;;;13.57;3.05;;;;;;;;;;5036211;28;20029;-78
2022/08/12 08:55:15;;;;;;;15.80;3.13;;;;;;;;;;5030035;28;20172;-78
2022/08/12 08:57:42;;;;;;;7.65;3.22;;;;;;;;;;5026184;28;20034;-78
2022/08/12 09:00:11;;;;;;;6.40;2.83;;;;;;;;;;5027099;28;20060;-78
2022/08/12 09:02:37;;;;;;;7.20;2.60;;;;;;;;;;5030861;28;20041;-78
2022/08/12 09:05:04;;;;;;;7.45;2.90;;;;;;;;;;5037861;28;20037;-78
2022/08/12 09:07:30;;;;;;;6.35;2.88;;;;;;;;;;5036572;28;20059;-78
2022/08/12 09:09:56;;;;;;;7.78;2.90;;;;;;;;;;5027318;28;20746;-79
2022/08/12 09:15:07;;;;;;;6.05;2.55;;;;;;;;;;5023869;28;20523;-78
2022/08/12 09:17:33;;;;;;;7.53;2.85;;;;;;;;;;5028702;28;20526;-78
2022/08/12 09:19:59;;;;;;;8.10;2.67;;;;;;;;;;5036084;28;20041;-78
2022/08/12 09:22:25;;;;;;;6.00;2.75;;;;;;;;;;5029678;28;20033;-78
2022/08/12 09:24:51;;;;;;;6.22;2.28;;;;;;;;;;5036307;28;20424;-79
2022/08/12 09:27:18;;;;;;;6.53;2.75;;;;;;;;;;5032927;28;20057;-79
2022/08/12 09:29:44;;;;;;;9.07;2.70;;;;;;;;;;5034942;28;20064;-78
2022/08/12 09:32:12;;;;;;;7.97;3.03;;;;;;;;;;5028469;28;20029;-79
2022/08/12 09:34:38;;;;;;;6.93;2.83;;;;;;;;;;5038091;28;20060;-78
2022/08/12 09:37:04;;;;;;;5.38;2.60;;;;;;;;;;5033071;28;20061;-79
2022/08/12 09:39:30;;;;;;;8.88;2.70;;;;;;;;;;5028690;28;20030;-78
2022/08/12 09:47:27;;;;;;;10.50;2.50;;;;;;;;;;5026410;28;20561;-79
2022/08/12 09:49:53;;;;;;;5.65;2.20;;;;;;;;;;5032083;28;20035;-80
2022/08/12 09:52:19;;;;;;;10.70;2.17;;;;;;;;;;5035848;28;20072;-80
2022/08/12 09:54:45;;;;;;;11.05;2.70;;;;;;;;;;5033983;28;20033;-80
2022/08/12 09:57:18;;;;;;;8.90;2.67;;;;;;;;;;5030489;28;20037;-79
2022/08/12 09:59:44;;;;;;;7.22;2.20;;;;;;;;;;5025384;28;20168;-78
2022/08/12 10:02:11;;;;;;;4.82;2.13;;;;;;;;;;5029919;28;20029;-78
2022/08/12 10:04:45;;;;;;;5.40;2.10;;;;;;;;;;5026892;28;20029;-79
2022/08/12 10:07:11;;;;;;;6.80;2.53;;;;;;;;;;5033764;28;20080;-79
2022/08/12 10:09:37;;;;;;;6.03;1.92;;;;;;;;;;5028951;28;20037;-80
2022/08/12 10:14:48;;;;;;;6.72;2.60;;;;;;;;;;5028981;28;20064;-79
2022/08/12 10:17:14;;;;;;;6.45;2.40;;;;;;;;;;5030382;28;20029;-78
2022/08/12 10:19:40;;;;;;;6.72;2.28;;;;;;;;;;5031685;28;20032;-78
2022/08/12 10:22:08;;;;;;;6.07;2.08;;;;;;;;;;5023459;28;20028;-78
2022/08/12 10:24:34;;;;;;;5.53;1.95;;;;;;;;;;5039101;28;20079;-78
2022/08/12 10:29:46;;;;;;;9.30;2.08;;;;;;;;;;5033009;28;20091;-78
2022/08/12 10:32:22;;;;;;;5.88;2.67;;;;;;;;;;5030759;28;20052;-78
2022/08/12 10:34:49;;;;;;;6.70;1.85;;;;;;;;;;5036834;28;20038;-78
2022/08/12 10:37:15;;;;;;;5.30;1.92;;;;;;;;;;5032753;28;20033;-78
2022/08/12 10:39:41;;;;;;;5.47;1.90;;;;;;;;;;5038324;28;20069;-78
2022/08/12 10:45:02;;;;;;;7.20;2.10;;;;;;;;;;5039732;28;20482;-79
2022/08/12 10:47:29;;;;;;;5.57;2.22;;;;;;;;;;5033651;28;20037;-79
2022/08/12 10:49:58;;;;;;;6.50;2.20;;;;;;;;;;5031369;28;20845;-78
2022/08/12 10:52:24;;;;;;;5.30;2.00;;;;;;;;;;5035442;28;20057;-79
2022/08/12 10:54:51;;;;;;;4.05;2.10;;;;;;;;;;5031167;28;20817;-79
2022/08/12 10:57:17;;;;;;;11.38;2.25;;;;;;;;;;5040286;28;20025;-79
2022/08/12 10:59:44;;;;;;;4.38;2.00;;;;;;;;;;5035076;28;20104;-79
2022/08/12 11:02:13;;;;;;;5.70;1.83;;;;;;;;;;5042797;28;20033;-79
2022/08/12 11:04:39;;;;;;;3.22;1.75;;;;;;;;;;5027654;28;20087;-78
2022/08/12 11:07:06;;;;;;;8.32;1.60;;;;;;;;;;5040087;28;20069;-79
2022/08/12 11:09:33;;;;;;;6.53;1.90;;;;;;;;;;5041191;28;20041;-78
2022/08/12 11:12:02;;;;;;;8.43;2.13;;;;;;;;;;5033583;28;20025;-78
2022/08/12 11:14:32;;;;;;;7.55;2.28;;;;;;;;;;5033956;28;20675;-79
2022/08/12 11:16:59;;;;;;;13.63;2.05;;;;;;;;;;5035644;28;20067;-79
2022/08/12 11:19:26;;;;;;;11.13;1.80;;;;;;;;;;5038265;28;20029;-79
2022/08/12 11:21:52;;;;;;;7.90;2.13;;;;;;;;;;5035866;28;20040;-78
2022/08/12 11:24:18;;;;;;;13.27;2.03;;;;;;;;;;5038515;28;20111;-78
2022/08/12 11:26:44;;;;;;;11.98;2.42;;;;;;;;;;5036740;28;20033;-78
2022/08/12 11:29:10;;;;;;;7.75;1.80;;;;;;;;;;5038580;28;20037;-77
2022/08/12 11:31:36;;;;;;;3.70;1.85;;;;;;;;;;5032013;28;20029;-79
2022/08/12 11:34:02;;;;;;;5.82;2.00;;;;;;;;;;5028567;28;20103;-79
2022/08/12 11:36:29;;;;;;;11.30;2.63;;;;;;;;;;5038582;28;20047;-79
2022/08/12 11:38:55;;;;;;;4.68;1.83;;;;;;;;;;5037764;28;20029;-79
2022/08/12 11:41:21;;;;;;;3.25;1.75;;;;;;;;;;5037815;28;20104;-79
2022/08/12 11:43:47;;;;;;;6.60;1.73;;;;;;;;;;5038916;28;20033;-79
2022/08/12 11:46:13;;;;;;;6.05;2.20;;;;;;;;;;5042577;28;20044;-79
2022/08/12 11:48:40;;;;;;;8.25;1.90;;;;;;;;;;5043773;28;20080;-79
2022/08/12 11:51:06;;;;;;;5.68;1.90;;;;;;;;;;5037956;28;20387;-79
2022/08/12 11:53:33;;;;;;;12.27;2.15;;;;;;;;;;5040131;28;20037;-79
2022/08/12 11:55:59;;;;;;;5.18;1.58;;;;;;;;;;5040973;28;20028;-78
2022/08/12 11:58:25;;;;;;;7.82;1.88;;;;;;;;;;5042789;28;20039;-79
2022/08/12 12:00:52;;;;;;;6.80;2.03;;;;;;;;;;5043844;28;20630;-79
2022/08/12 12:03:18;;;;;;;3.95;1.58;;;;;;;;;;5043176;28;20046;-79
2022/08/12 12:05:44;;;;;;;5.78;2.35;;;;;;;;;;5043613;28;20037;-79
2022/08/12 12:08:18;;;;;;;5.55;2.17;;;;;;;;;;5038503;28;20136;-79
2022/08/12 12:10:44;;;;;;;3.45;1.63;;;;;;;;;;5043499;28;20503;-79
2022/08/12 12:13:10;;;;;;;3.45;1.33;;;;;;;;;;5042661;28;20386;-79
2022/08/12 12:15:38;;;;;;;4.32;1.90;;;;;;;;;;5042319;28;20029;-79
2022/08/12 12:18:04;;;;;;;9.20;1.63;;;;;;;;;;5037156;28;20029;-79
2022/08/12 12:20:31;;;;;;;3.65;1.85;;;;;;;;;;5031816;28;20021;-79
2022/08/12 12:22:57;;;;;;;6.13;1.58;;;;;;;;;;5037126;28;20884;-79
2022/08/12 12:25:23;;;;;;;10.20;1.80;;;;;;;;;;5028904;28;20116;-79
2022/08/12 12:27:55;;;;;;;2.67;1.27;;;;;;;;;;5030277;28;20036;-79
2022/08/12 12:30:21;;;;;;;5.65;1.20;;;;;;;;;;5026155;28;20041;-79
2022/08/12 12:32:47;;;;;;;3.38;1.15;;;;;;;;;;5030248;28;20838;-79
2022/08/12 12:35:13;;;;;;;5.43;1.33;;;;;;;;;;5036534;28;20045;-78
2022/08/12 12:37:51;;;;;;;3.83;1.25;;;;;;;;;;5029707;28;20030;-79
2022/08/12 12:40:17;;;;;;;6.32;1.30;;;;;;;;;;5028969;28;20079;-79
2022/08/12 12:42:43;;;;;;;3.22;1.10;;;;;;;;;;5029769;28;20017;-78
2022/08/12 12:45:10;;;;;;;3.35;0.80;;;;;;;;;;5028919;28;20037;-79
2022/08/12 12:47:36;;;;;;;3.75;1.55;;;;;;;;;;5030804;28;20029;-78
2022/08/12 12:50:03;;;;;;;4.15;1.17;;;;;;;;;;5038025;28;20749;-78
2022/08/12 12:52:29;;;;;;;5.43;1.13;;;;;;;;;;5032563;28;21027;-79
2022/08/12 12:54:57;;;;;;;5.97;1.00;;;;;;;;;;5030812;28;20049;-79
2022/08/12 12:57:24;;;;;;;4.63;1.23;;;;;;;;;;5023227;28;20053;-79
2022/08/12 13:02:39;;;;;;;4.50;1.13;;;;;;;;;;5025194;28;20036;-79
2022/08/12 13:05:05;;;;;;;2.40;1.00;;;;;;;;;;5030556;28;20041;-79
2022/08/12 13:07:31;;;;;;;6.00;1.25;;;;;;;;;;5030031;28;20458;-79
2022/08/12 13:09:57;;;;;;;5.00;1.42;;;;;;;;;;5028639;28;20410;-79
2022/08/12 13:12:23;;;;;;;2.50;1.35;;;;;;;;;;5026863;28;20040;-79
2022/08/12 13:14:50;;;;;;;5.72;1.40;;;;;;;;;;5033385;28;20067;-79
2022/08/12 13:17:20;;;;;;;6.15;1.50;;;;;;;;;;5020303;28;20482;-79
2022/08/12 13:19:46;;;;;;;4.43;1.50;;;;;;;;;;5025905;28;20129;-79
2022/08/12 13:22:16;;;;;;;4.55;1.35;;;;;;;;;;5024773;28;20030;-79
2022/08/12 13:24:42;;;;;;;3.88;1.80;;;;;;;;;;5033422;28;20028;-79
2022/08/12 13:27:08;;;;;;;2.80;1.48;;;;;;;;;;5038438;28;20029;-79
2022/08/12 13:29:37;;;;;;;10.18;1.48;;;;;;;;;;5030143;28;20049;-79
2022/08/12 13:32:04;;;;;;;4.53;1.83;;;;;;;;;;5038640;28;20029;-79
2022/08/12 13:34:31;;;;;;;4.43;1.30;;;;;;;;;;5030604;28;20080;-79
2022/08/12 13:36:57;;;;;;;4.45;1.45;;;;;;;;;;5036447;28;20025;-79
2022/08/12 13:39:24;;;;;;;4.10;0.95;;;;;;;;;;5028881;28;20029;-79
2022/08/12 13:41:50;;;;;;;3.67;1.10;;;;;;;;;;5027921;28;20112;-79
2022/08/12 13:44:17;;;;;;;11.07;1.40;;;;;;;;;;5028229;28;20025;-79
2022/08/12 13:46:43;;;;;;;12.05;1.42;;;;;;;;;;5031342;28;20061;-79
2022/08/12 13:49:12;;;;;;;18.20;1.90;;;;;;;;;;5028598;28;20034;-79
2022/08/12 13:51:38;;;;;;;10.95;1.77;;;;;;;;;;5027855;28;20032;-79
2022/08/12 13:54:05;;;;;;;3.13;1.20;;;;;;;;;;5031250;28;20029;-79
2022/08/12 13:56:33;;;;;;;5.32;1.05;;;;;;;;;;5034729;28;20113;-79
2022/08/12 13:59:08;;;;;;;2.90;1.02;;;;;;;;;;5035061;28;20111;-79
2022/08/12 14:01:34;;;;;;;3.42;1.10;;;;;;;;;;5032040;28;20029;-79
2022/08/12 14:04:03;;;;;;;1.90;0.80;;;;;;;;;;5027858;28;20053;-79
2022/08/12 14:06:29;;;;;;;4.88;1.13;;;;;;;;;;5029524;28;20033;-79
2022/08/12 14:08:55;;;;;;;5.72;1.15;;;;;;;;;;5039113;28;20041;-78
2022/08/12 14:11:21;;;;;;;7.88;1.20;;;;;;;;;;5032839;28;20033;-79
2022/08/12 14:13:50;;;;;;;8.25;1.20;;;;;;;;;;5015362;28;20042;-79
2022/08/12 14:16:17;;;;;;;5.03;1.27;;;;;;;;;;5027095;28;20541;-79
2022/08/12 14:18:43;;;;;;;4.53;1.10;;;;;;;;;;5030119;28;20033;-79
2022/08/12 14:21:11;;;;;;;4.10;1.10;;;;;;;;;;5032222;28;20026;-79
2022/08/12 14:23:38;;;;;;;5.72;1.00;;;;;;;;;;5040711;28;20139;-79
2022/08/12 14:26:06;;;;;;;3.55;0.85;;;;;;;;;;5029332;28;20109;-79
2022/08/12 14:28:36;;;;;;;4.45;1.35;;;;;;;;;;5033839;28;20899;-78
2022/08/12 14:31:06;;;;;;;2.92;1.30;;;;;;;;;;5032435;28;20112;-78
2022/08/12 14:33:32;;;;;;;5.50;1.48;;;;;;;;;;5035132;28;20037;-78
2022/08/12 14:35:59;;;;;;;5.45;1.38;;;;;;;;;;5028827;28;20103;-78
2022/08/12 14:38:26;;;;;;;4.60;1.52;;;;;;;;;;5032066;28;20573;-78
2022/08/12 14:40:55;;;;;;;7.65;1.30;;;;;;;;;;5033798;28;20050;-78
2022/08/12 14:43:21;;;;;;;5.05;1.30;;;;;;;;;;5028610;28;20903;-78
2022/08/12 14:45:48;;;;;;;3.17;1.45;;;;;;;;;;5034568;28;20096;-78
2022/08/12 14:48:17;;;;;;;3.70;1.40;;;;;;;;;;5032868;28;20075;-79
2022/08/12 14:50:43;;;;;;;5.97;1.27;;;;;;;;;;5039656;28;20445;-79
2022/08/12 14:53:11;;;;;;;3.83;1.70;;;;;;;;;;5024475;28;20105;-79
2022/08/12 14:55:41;;;;;;;4.35;1.60;;;;;;;;;;5029205;28;20052;-79
2022/08/12 14:58:09;;;;;;;6.38;1.45;;;;;;;;;;5040734;28;20554;-79
2022/08/12 15:03:26;;;;;;;5.55;1.73;;;;;;;;;;5030473;28;20045;-79
2022/08/12 15:05:55;;;;;;;5.45;1.48;;;;;;;;;;5026505;28;20017;-79
2022/08/12 15:08:23;;;;;;;4.03;1.60;;;;;;;;;;5026095;28;20017;-79
2022/08/12 15:10:49;;;;;;;8.07;1.80;;;;;;;;;;5037871;28;20029;-78
2022/08/12 15:13:16;;;;;;;9.00;1.80;;;;;;;;;;5030088;28;20282;-79
2022/08/12 15:15:43;;;;;;;7.45;1.42;;;;;;;;;;5036099;28;20483;-79
2022/08/12 15:18:09;;;;;;;4.57;1.63;;;;;;;;;;5038837;28;20071;-79
2022/08/12 15:20:36;;;;;;;4.53;1.48;;;;;;;;;;5030914;28;20410;-79
2022/08/12 15:23:02;;;;;;;3.42;1.55;;;;;;;;;;5032223;28;20033;-79
2022/08/12 15:25:29;;;;;;;4.80;1.42;;;;;;;;;;5042330;28;20116;-79
2022/08/12 15:27:55;;;;;;;3.92;1.75;;;;;;;;;;5036742;28;20037;-79
2022/08/12 15:30:23;;;;;;;4.82;1.60;;;;;;;;;;5036959;28;20033;-79
2022/08/12 15:32:50;;;;;;;3.50;1.40;;;;;;;;;;5036325;28;20041;-80
2022/08/12 15:35:16;;;;;;;5.93;2.08;;;;;;;;;;5037109;28;20044;-79
2022/08/12 15:37:42;;;;;;;5.18;1.55;;;;;;;;;;5044481;28;20725;-79
2022/08/12 15:40:10;;;;;;;4.97;1.40;;;;;;;;;;5027365;28;20068;-78
2022/08/12 15:42:36;;;;;;;4.97;1.73;;;;;;;;;;5030449;28;20032;-79
2022/08/12 15:45:03;;;;;;;3.35;1.40;;;;;;;;;;5030477;28;20046;-79
2022/08/12 15:47:29;;;;;;;6.30;1.60;;;;;;;;;;5022788;28;20029;-78
2022/08/12 15:49:57;;;;;;;6.35;1.58;;;;;;;;;;5029658;28;20033;-79
2022/08/12 15:52:24;;;;;;;4.65;1.30;;;;;;;;;;5030827;28;20446;-79
2022/08/12 15:54:50;;;;;;;6.07;1.73;;;;;;;;;;5038159;28;20079;-79
2022/08/12 15:57:18;;;;;;;6.00;1.50;;;;;;;;;;5034318;28;20029;-79
2022/08/12 15:59:45;;;;;;;4.07;1.70;;;;;;;;;;5028713;28;20137;-78
2022/08/12 16:02:13;;;;;;;4.53;1.88;;;;;;;;;;5035413;28;20021;-79
2022/08/12 16:04:40;;;;;;;4.63;1.88;;;;;;;;;;5039898;28;20148;-78
2022/08/12 16:07:06;;;;;;;14.43;1.80;;;;;;;;;;5034037;28;20052;-79
2022/08/12 16:09:32;;;;;;;3.78;1.50;;;;;;;;;;5037757;28;20052;-79
2022/08/12 16:12:02;;;;;;;6.70;1.40;;;;;;;;;;5032218;28;20524;-79
2022/08/12 16:14:31;;;;;;;5.13;2.00;;;;;;;;;;5029524;28;20124;-79
2022/08/12 16:16:57;;;;;;;5.03;1.80;;;;;;;;;;5028962;28;20027;-79
2022/08/12 16:19:23;;;;;;;4.78;1.83;;;;;;;;;;5038160;28;20198;-79
2022/08/12 16:21:49;;;;;;;4.55;1.77;;;;;;;;;;5032255;28;20064;-78
2022/08/12 16:24:17;;;;;;;3.92;1.40;;;;;;;;;;5033268;28;20143;-79
2022/08/12 16:26:43;;;;;;;6.35;1.70;;;;;;;;;;5033453;28;20041;-79
2022/08/12 16:29:09;;;;;;;6.55;1.73;;;;;;;;;;5029330;28;20449;-79
2022/08/12 16:31:39;;;;;;;6.75;1.52;;;;;;;;;;5034368;28;20041;-79
2022/08/12 16:34:05;;;;;;;9.60;1.77;;;;;;;;;;5034560;28;20095;-79